sensor_id;sensor_type;location;lat;lon;timestamp;temperature;humidity
76139;DHT22;65138;50.946;7.074;2023-03-13T00:01:12;17.50;51.60
76139;DHT22;65138;50.946;7.074;2023-03-13T00:03:38;17.50;51.70
76139;DHT22;65138;50.946;7.074;2023-03-13T00:06:04;17.50;51.70
76139;DHT22;65138;50.946;7.074;2023-03-13T00:08:30;17.50;51.60
76139;DHT22;65138;50.946;7.074;2023-03-13T00:10:55;17.50;51.70
76139;DHT22;65138;50.946;7.074;2023-03-13T00:13:21;17.50;51.70
76139;DHT22;65138;50.946;7.074;2023-03-13T00:15:47;17.50;51.70
76139;DHT22;65138;50.946;7.074;2023-03-13T00:18:12;17.50;51.70
76139;DHT22;65138;50.946;7.074;2023-03-13T00:20:38;17.50;51.70
76139;DHT22;65138;50.946;7.074;2023-03-13T00:23:04;17.50;51.80
76139;DHT22;65138;50.946;7.074;2023-03-13T00:25:29;17.50;51.80
76139;DHT22;65138;50.946;7.074;2023-03-13T00:27:55;17.40;51.70
76139;DHT22;65138;50.946;7.074;2023-03-13T00:30:21;17.40;51.80
76139;DHT22;65138;50.946;7.074;2023-03-13T00:32:47;17.40;51.80
76139;DHT22;65138;50.946;7.074;2023-03-13T00:35:14;17.40;51.80
76139;DHT22;65138;50.946;7.074;2023-03-13T00:37:41;17.40;51.80
76139;DHT22;65138;50.946;7.074;2023-03-13T00:40:08;17.40;51.80
76139;DHT22;65138;50.946;7.074;2023-03-13T00:42:34;17.40;51.90
76139;DHT22;65138;50.946;7.074;2023-03-13T00:45:00;17.40;51.80
76139;DHT22;65138;50.946;7.074;2023-03-13T00:47:26;17.40;51.90
76139;DHT22;65138;50.946;7.074;2023-03-13T00:49:52;17.40;51.90
76139;DHT22;65138;50.946;7.074;2023-03-13T00:52:17;17.40;51.90
76139;DHT22;65138;50.946;7.074;2023-03-13T00:54:43;17.40;51.90
76139;DHT22;65138;50.946;7.074;2023-03-13T00:57:09;17.40;51.90
76139;DHT22;65138;50.946;7.074;2023-03-13T00:59:34;17.40;52.50
76139;DHT22;65138;50.946;7.074;2023-03-13T01:02:00;17.40;51.90
76139;DHT22;65138;50.946;7.074;2023-03-13T01:04:26;17.40;52.00
76139;DHT22;65138;50.946;7.074;2023-03-13T01:06:51;17.40;52.00
76139;DHT22;65138;50.946;7.074;2023-03-13T01:09:17;17.40;52.00
76139;DHT22;65138;50.946;7.074;2023-03-13T01:11:43;17.40;52.10
76139;DHT22;65138;50.946;7.074;2023-03-13T01:14:13;17.40;52.10
76139;DHT22;65138;50.946;7.074;2023-03-13T01:16:39;17.40;52.10
76139;DHT22;65138;50.946;7.074;2023-03-13T01:19:11;17.40;52.10
76139;DHT22;65138;50.946;7.074;2023-03-13T01:21:39;17.40;52.10
76139;DHT22;65138;50.946;7.074;2023-03-13T01:24:05;17.40;52.10
76139;DHT22;65138;50.946;7.074;2023-03-13T01:26:31;17.30;52.20
76139;DHT22;65138;50.946;7.074;2023-03-13T01:28:56;17.40;52.20
76139;DHT22;65138;50.946;7.074;2023-03-13T01:31:28;17.40;52.20
76139;DHT22;65138;50.946;7.074;2023-03-13T01:33:56;17.30;52.20
76139;DHT22;65138;50.946;7.074;2023-03-13T01:36:24;17.40;52.30
76139;DHT22;65138;50.946;7.074;2023-03-13T01:38:52;17.30;52.20
76139;DHT22;65138;50.946;7.074;2023-03-13T01:41:19;17.30;52.20
76139;DHT22;65138;50.946;7.074;2023-03-13T01:43:45;17.30;52.30
76139;DHT22;65138;50.946;7.074;2023-03-13T01:46:19;17.30;52.30
76139;DHT22;65138;50.946;7.074;2023-03-13T01:49:26;17.30;52.30
76139;DHT22;65138;50.946;7.074;2023-03-13T01:52:19;17.30;52.40
76139;DHT22;65138;50.946;7.074;2023-03-13T01:55:00;17.30;52.40
76139;DHT22;65138;50.946;7.074;2023-03-13T01:57:31;17.30;52.40
76139;DHT22;65138;50.946;7.074;2023-03-13T02:00:05;17.30;52.40
76139;DHT22;65138;50.946;7.074;2023-03-13T02:02:41;17.30;52.40
76139;DHT22;65138;50.946;7.074;2023-03-13T02:05:08;17.30;52.40
76139;DHT22;65138;50.946;7.074;2023-03-13T02:07:40;17.30;52.40
76139;DHT22;65138;50.946;7.074;2023-03-13T02:10:08;17.30;52.50
76139;DHT22;65138;50.946;7.074;2023-03-13T02:12:36;17.30;52.50
76139;DHT22;65138;50.946;7.074;2023-03-13T02:15:15;17.30;52.50
76139;DHT22;65138;50.946;7.074;2023-03-13T02:17:42;17.20;52.50
76139;DHT22;65138;50.946;7.074;2023-03-13T02:20:10;17.20;52.50
76139;DHT22;65138;50.946;7.074;2023-03-13T02:23:08;17.20;52.60
76139;DHT22;65138;50.946;7.074;2023-03-13T02:25:40;17.20;52.60
76139;DHT22;65138;50.946;7.074;2023-03-13T02:28:11;17.20;52.60
76139;DHT22;65138;50.946;7.074;2023-03-13T02:30:41;17.20;52.60
76139;DHT22;65138;50.946;7.074;2023-03-13T02:33:08;17.20;52.70
76139;DHT22;65138;50.946;7.074;2023-03-13T02:35:36;17.20;52.70
76139;DHT22;65138;50.946;7.074;2023-03-13T02:38:07;17.20;52.80
76139;DHT22;65138;50.946;7.074;2023-03-13T02:40:37;17.20;52.80
76139;DHT22;65138;50.946;7.074;2023-03-13T02:43:11;17.20;52.80
76139;DHT22;65138;50.946;7.074;2023-03-13T02:45:40;17.20;52.80
76139;DHT22;65138;50.946;7.074;2023-03-13T02:48:06;17.20;52.80
76139;DHT22;65138;50.946;7.074;2023-03-13T02:50:33;17.20;52.80
76139;DHT22;65138;50.946;7.074;2023-03-13T02:53:03;17.20;52.80
76139;DHT22;65138;50.946;7.074;2023-03-13T02:55:39;17.20;52.90
76139;DHT22;65138;50.946;7.074;2023-03-13T02:58:06;17.20;52.90
76139;DHT22;65138;50.946;7.074;2023-03-13T03:00:34;17.20;53.00
76139;DHT22;65138;50.946;7.074;2023-03-13T03:03:00;17.20;52.90
76139;DHT22;65138;50.946;7.074;2023-03-13T03:05:26;17.20;52.90
76139;DHT22;65138;50.946;7.074;2023-03-13T03:07:51;17.20;52.90
76139;DHT22;65138;50.946;7.074;2023-03-13T03:10:17;17.20;53.00
76139;DHT22;65138;50.946;7.074;2023-03-13T03:12:43;17.20;53.00
76139;DHT22;65138;50.946;7.074;2023-03-13T03:15:09;17.20;53.00
76139;DHT22;65138;50.946;7.074;2023-03-13T03:17:38;17.20;53.00
76139;DHT22;65138;50.946;7.074;2023-03-13T03:20:04;17.20;53.00
76139;DHT22;65138;50.946;7.074;2023-03-13T03:22:37;17.20;53.10
76139;DHT22;65138;50.946;7.074;2023-03-13T03:25:05;17.20;53.10
76139;DHT22;65138;50.946;7.074;2023-03-13T03:27:31;17.20;53.10
76139;DHT22;65138;50.946;7.074;2023-03-13T03:29:57;17.20;53.10
76139;DHT22;65138;50.946;7.074;2023-03-13T03:32:23;17.20;53.10
76139;DHT22;65138;50.946;7.074;2023-03-13T03:34:49;17.20;53.10
76139;DHT22;65138;50.946;7.074;2023-03-13T03:37:14;17.20;53.20
76139;DHT22;65138;50.946;7.074;2023-03-13T03:39:40;17.20;53.20
76139;DHT22;65138;50.946;7.074;2023-03-13T03:42:06;17.20;53.30
76139;DHT22;65138;50.946;7.074;2023-03-13T03:44:31;17.20;53.30
76139;DHT22;65138;50.946;7.074;2023-03-13T03:46:59;17.20;53.30
76139;DHT22;65138;50.946;7.074;2023-03-13T03:49:27;17.20;53.30
76139;DHT22;65138;50.946;7.074;2023-03-13T03:51:53;17.20;53.30
76139;DHT22;65138;50.946;7.074;2023-03-13T03:54:24;17.20;53.30
76139;DHT22;65138;50.946;7.074;2023-03-13T03:56:50;17.10;53.30
76139;DHT22;65138;50.946;7.074;2023-03-13T03:59:15;17.10;53.30
76139;DHT22;65138;50.946;7.074;2023-03-13T04:01:46;17.20;53.30
76139;DHT22;65138;50.946;7.074;2023-03-13T04:04:15;17.10;53.30
76139;DHT22;65138;50.946;7.074;2023-03-13T04:06:43;17.20;53.30
76139;DHT22;65138;50.946;7.074;2023-03-13T04:09:10;17.20;53.40
76139;DHT22;65138;50.946;7.074;2023-03-13T04:11:36;17.20;53.30
76139;DHT22;65138;50.946;7.074;2023-03-13T04:14:04;17.10;53.70
76139;DHT22;65138;50.946;7.074;2023-03-13T04:16:30;16.50;56.50
76139;DHT22;65138;50.946;7.074;2023-03-13T04:18:56;15.90;59.80
76139;DHT22;65138;50.946;7.074;2023-03-13T04:21:24;15.90;65.90
76139;DHT22;65138;50.946;7.074;2023-03-13T04:23:58;15.90;67.20
76139;DHT22;65138;50.946;7.074;2023-03-13T04:26:24;15.90;68.10
76139;DHT22;65138;50.946;7.074;2023-03-13T04:28:52;15.90;68.50
76139;DHT22;65138;50.946;7.074;2023-03-13T04:31:27;16.00;69.00
76139;DHT22;65138;50.946;7.074;2023-03-13T04:34:11;15.80;69.70
76139;DHT22;65138;50.946;7.074;2023-03-13T04:36:50;15.80;70.20
76139;DHT22;65138;50.946;7.074;2023-03-13T04:39:21;15.80;70.50
76139;DHT22;65138;50.946;7.074;2023-03-13T04:42:25;15.90;67.10
76139;DHT22;65138;50.946;7.074;2023-03-13T04:45:13;15.80;70.30
76139;DHT22;65138;50.946;7.074;2023-03-13T04:47:55;15.80;70.90
76139;DHT22;65138;50.946;7.074;2023-03-13T04:50:39;15.90;71.40
76139;DHT22;65138;50.946;7.074;2023-03-13T04:53:28;15.90;71.90
76139;DHT22;65138;50.946;7.074;2023-03-13T04:56:02;16.00;71.90
76139;DHT22;65138;50.946;7.074;2023-03-13T04:58:43;16.00;72.00
76139;DHT22;65138;50.946;7.074;2023-03-13T05:01:30;16.10;67.50
76139;DHT22;65138;50.946;7.074;2023-03-13T05:04:16;16.20;70.60
76139;DHT22;65138;50.946;7.074;2023-03-13T05:06:56;16.00;71.60
76139;DHT22;65138;50.946;7.074;2023-03-13T05:09:40;16.00;72.30
76139;DHT22;65138;50.946;7.074;2023-03-13T05:12:31;16.00;72.70
76139;DHT22;65138;50.946;7.074;2023-03-13T05:15:04;16.00;72.40
76139;DHT22;65138;50.946;7.074;2023-03-13T05:17:44;16.10;72.40
76139;DHT22;65138;50.946;7.074;2023-03-13T05:20:25;16.10;72.60
76139;DHT22;65138;50.946;7.074;2023-03-13T05:23:04;16.10;72.50
76139;DHT22;65138;50.946;7.074;2023-03-13T05:25:49;16.20;72.30
76139;DHT22;65138;50.946;7.074;2023-03-13T05:28:31;16.20;72.40
76139;DHT22;65138;50.946;7.074;2023-03-13T05:31:18;16.20;72.50
76139;DHT22;65138;50.946;7.074;2023-03-13T05:33:49;16.20;72.70
76139;DHT22;65138;50.946;7.074;2023-03-13T05:36:27;16.30;72.60
76139;DHT22;65138;50.946;7.074;2023-03-13T05:39:13;16.20;72.90
76139;DHT22;65138;50.946;7.074;2023-03-13T05:41:44;16.20;73.00
76139;DHT22;65138;50.946;7.074;2023-03-13T05:44:19;16.20;73.00
76139;DHT22;65138;50.946;7.074;2023-03-13T05:47:06;16.20;73.00
76139;DHT22;65138;50.946;7.074;2023-03-13T05:49:40;16.30;72.90
76139;DHT22;65138;50.946;7.074;2023-03-13T05:52:24;16.40;72.70
76139;DHT22;65138;50.946;7.074;2023-03-13T05:55:10;16.50;71.60
76139;DHT22;65138;50.946;7.074;2023-03-13T05:57:56;16.50;72.10
76139;DHT22;65138;50.946;7.074;2023-03-13T06:00:41;16.80;70.70
76139;DHT22;65138;50.946;7.074;2023-03-13T06:03:28;16.70;71.00
76139;DHT22;65138;50.946;7.074;2023-03-13T06:05:58;16.60;71.90
76139;DHT22;65138;50.946;7.074;2023-03-13T06:08:42;16.50;72.40
76139;DHT22;65138;50.946;7.074;2023-03-13T06:11:08;16.40;72.90
76139;DHT22;65138;50.946;7.074;2023-03-13T06:13:34;16.40;73.30
76139;DHT22;65138;50.946;7.074;2023-03-13T06:16:07;16.40;73.40
76139;DHT22;65138;50.946;7.074;2023-03-13T06:18:37;16.40;73.60
76139;DHT22;65138;50.946;7.074;2023-03-13T06:21:03;16.40;73.60
76139;DHT22;65138;50.946;7.074;2023-03-13T06:23:29;16.70;72.70
76139;DHT22;65138;50.946;7.074;2023-03-13T06:25:55;16.60;72.90
76139;DHT22;65138;50.946;7.074;2023-03-13T06:28:20;16.60;72.90
76139;DHT22;65138;50.946;7.074;2023-03-13T06:30:46;16.90;71.80
76139;DHT22;65138;50.946;7.074;2023-03-13T06:33:12;16.80;71.90
76139;DHT22;65138;50.946;7.074;2023-03-13T06:35:42;16.60;73.00
76139;DHT22;65138;50.946;7.074;2023-03-13T06:38:08;16.70;72.20
76139;DHT22;65138;50.946;7.074;2023-03-13T06:40:34;16.80;72.00
76139;DHT22;65138;50.946;7.074;2023-03-13T06:42:59;16.70;72.50
76139;DHT22;65138;50.946;7.074;2023-03-13T06:45:25;16.80;73.00
76139;DHT22;65138;50.946;7.074;2023-03-13T06:47:51;16.80;72.60
76139;DHT22;65138;50.946;7.074;2023-03-13T06:50:17;16.80;72.60
76139;DHT22;65138;50.946;7.074;2023-03-13T06:52:43;16.80;73.10
76139;DHT22;65138;50.946;7.074;2023-03-13T06:55:09;16.80;72.80
76139;DHT22;65138;50.946;7.074;2023-03-13T06:57:35;16.70;73.30
76139;DHT22;65138;50.946;7.074;2023-03-13T07:00:00;17.00;71.80
76139;DHT22;65138;50.946;7.074;2023-03-13T07:02:26;17.40;69.50
76139;DHT22;65138;50.946;7.074;2023-03-13T07:04:51;17.50;68.60
76139;DHT22;65138;50.946;7.074;2023-03-13T07:07:17;17.80;68.10
76139;DHT22;65138;50.946;7.074;2023-03-13T07:09:43;18.00;66.40
76139;DHT22;65138;50.946;7.074;2023-03-13T07:12:08;18.00;65.60
76139;DHT22;65138;50.946;7.074;2023-03-13T07:14:34;17.90;65.00
76139;DHT22;65138;50.946;7.074;2023-03-13T07:16:59;17.90;64.80
76139;DHT22;65138;50.946;7.074;2023-03-13T07:19:25;17.90;64.80
76139;DHT22;65138;50.946;7.074;2023-03-13T07:21:52;18.10;64.80
76139;DHT22;65138;50.946;7.074;2023-03-13T07:24:18;18.30;64.80
76139;DHT22;65138;50.946;7.074;2023-03-13T07:26:44;18.30;64.30
76139;DHT22;65138;50.946;7.074;2023-03-13T07:29:10;18.40;64.20
76139;DHT22;65138;50.946;7.074;2023-03-13T07:31:35;18.40;63.70
76139;DHT22;65138;50.946;7.074;2023-03-13T07:34:01;18.40;64.50
76139;DHT22;65138;50.946;7.074;2023-03-13T07:36:27;18.40;63.70
76139;DHT22;65138;50.946;7.074;2023-03-13T07:38:54;18.40;63.40
76139;DHT22;65138;50.946;7.074;2023-03-13T07:41:19;18.40;63.30
76139;DHT22;65138;50.946;7.074;2023-03-13T07:43:45;18.50;63.00
76139;DHT22;65138;50.946;7.074;2023-03-13T07:46:13;18.50;62.10
76139;DHT22;65138;50.946;7.074;2023-03-13T07:48:41;18.50;62.20
76139;DHT22;65138;50.946;7.074;2023-03-13T07:51:10;18.50;62.40
76139;DHT22;65138;50.946;7.074;2023-03-13T07:53:37;18.50;61.90
76139;DHT22;65138;50.946;7.074;2023-03-13T07:56:05;18.60;62.40
76139;DHT22;65138;50.946;7.074;2023-03-13T07:58:33;18.70;61.80
76139;DHT22;65138;50.946;7.074;2023-03-13T08:00:59;18.60;61.90
76139;DHT22;65138;50.946;7.074;2023-03-13T08:03:25;18.70;62.50
76139;DHT22;65138;50.946;7.074;2023-03-13T08:05:59;18.70;61.70
76139;DHT22;65138;50.946;7.074;2023-03-13T08:08:25;18.80;62.00
76139;DHT22;65138;50.946;7.074;2023-03-13T08:10:51;18.80;60.70
76139;DHT22;65138;50.946;7.074;2023-03-13T08:13:16;18.80;62.30
76139;DHT22;65138;50.946;7.074;2023-03-13T08:15:42;18.80;61.60
76139;DHT22;65138;50.946;7.074;2023-03-13T08:18:07;18.80;62.00
76139;DHT22;65138;50.946;7.074;2023-03-13T08:20:33;18.80;61.50
76139;DHT22;65138;50.946;7.074;2023-03-13T08:22:58;18.90;61.80
76139;DHT22;65138;50.946;7.074;2023-03-13T08:25:24;18.90;61.00
76139;DHT22;65138;50.946;7.074;2023-03-13T08:27:50;18.90;60.50
76139;DHT22;65138;50.946;7.074;2023-03-13T08:30:16;18.90;60.80
76139;DHT22;65138;50.946;7.074;2023-03-13T08:32:41;18.80;60.60
76139;DHT22;65138;50.946;7.074;2023-03-13T08:35:07;18.90;61.00
76139;DHT22;65138;50.946;7.074;2023-03-13T08:37:33;18.90;60.20
76139;DHT22;65138;50.946;7.074;2023-03-13T08:39:59;18.80;60.10
76139;DHT22;65138;50.946;7.074;2023-03-13T08:42:24;18.70;59.90
76139;DHT22;65138;50.946;7.074;2023-03-13T08:44:50;18.70;59.90
76139;DHT22;65138;50.946;7.074;2023-03-13T08:47:15;18.60;59.70
76139;DHT22;65138;50.946;7.074;2023-03-13T08:49:43;18.60;59.80
76139;DHT22;65138;50.946;7.074;2023-03-13T08:52:09;18.60;59.90
76139;DHT22;65138;50.946;7.074;2023-03-13T08:54:34;18.60;59.90
76139;DHT22;65138;50.946;7.074;2023-03-13T08:57:00;18.60;59.60
76139;DHT22;65138;50.946;7.074;2023-03-13T08:59:26;18.60;59.60
76139;DHT22;65138;50.946;7.074;2023-03-13T09:01:52;18.50;59.40
76139;DHT22;65138;50.946;7.074;2023-03-13T09:04:18;18.50;59.40
76139;DHT22;65138;50.946;7.074;2023-03-13T09:06:44;18.50;59.30
76139;DHT22;65138;50.946;7.074;2023-03-13T09:09:11;18.50;59.30
76139;DHT22;65138;50.946;7.074;2023-03-13T09:11:38;18.50;59.30
76139;DHT22;65138;50.946;7.074;2023-03-13T09:14:05;18.50;59.20
76139;DHT22;65138;50.946;7.074;2023-03-13T09:16:32;18.50;59.00
76139;DHT22;65138;50.946;7.074;2023-03-13T09:18:58;18.50;59.00
76139;DHT22;65138;50.946;7.074;2023-03-13T09:21:32;18.50;59.10
76139;DHT22;65138;50.946;7.074;2023-03-13T09:23:58;18.40;58.90
76139;DHT22;65138;50.946;7.074;2023-03-13T09:26:25;18.40;58.80
76139;DHT22;65138;50.946;7.074;2023-03-13T09:28:52;18.40;58.80
76139;DHT22;65138;50.946;7.074;2023-03-13T09:31:24;18.40;58.90
76139;DHT22;65138;50.946;7.074;2023-03-13T09:33:50;18.40;58.80
76139;DHT22;65138;50.946;7.074;2023-03-13T09:36:16;18.40;58.80
76139;DHT22;65138;50.946;7.074;2023-03-13T09:38:43;18.40;58.70
76139;DHT22;65138;50.946;7.074;2023-03-13T09:41:25;18.40;58.70
76139;DHT22;65138;50.946;7.074;2023-03-13T09:44:05;18.40;58.60
76139;DHT22;65138;50.946;7.074;2023-03-13T09:49:28;18.40;58.60
76139;DHT22;65138;50.946;7.074;2023-03-13T09:52:18;18.40;58.50
76139;DHT22;65138;50.946;7.074;2023-03-13T09:57:43;18.40;58.50
76139;DHT22;65138;50.946;7.074;2023-03-13T10:00:16;18.40;58.40
76139;DHT22;65138;50.946;7.074;2023-03-13T10:05:38;18.40;58.40
76139;DHT22;65138;50.946;7.074;2023-03-13T10:08:29;18.30;58.40
76139;DHT22;65138;50.946;7.074;2023-03-13T10:11:02;18.30;58.50
76139;DHT22;65138;50.946;7.074;2023-03-13T10:13:48;18.40;58.50
76139;DHT22;65138;50.946;7.074;2023-03-13T10:16:23;18.40;58.50
76139;DHT22;65138;50.946;7.074;2023-03-13T10:18:54;18.40;58.40
76139;DHT22;65138;50.946;7.074;2023-03-13T10:21:22;18.40;58.40
76139;DHT22;65138;50.946;7.074;2023-03-13T10:23:58;18.30;58.50
76139;DHT22;65138;50.946;7.074;2023-03-13T10:26:28;18.50;59.10
76139;DHT22;65138;50.946;7.074;2023-03-13T10:28:55;18.60;59.80
76139;DHT22;65138;50.946;7.074;2023-03-13T10:31:32;18.70;59.30
76139;DHT22;65138;50.946;7.074;2023-03-13T10:34:09;18.70;59.70
76139;DHT22;65138;50.946;7.074;2023-03-13T10:36:43;18.80;60.10
76139;DHT22;65138;50.946;7.074;2023-03-13T10:39:18;18.70;59.40
76139;DHT22;65138;50.946;7.074;2023-03-13T10:41:44;18.80;59.80
76139;DHT22;65138;50.946;7.074;2023-03-13T10:44:21;18.90;60.00
76139;DHT22;65138;50.946;7.074;2023-03-13T10:46:48;19.00;58.90
76139;DHT22;65138;50.946;7.074;2023-03-13T10:49:20;18.90;60.30
76139;DHT22;65138;50.946;7.074;2023-03-13T10:51:49;18.90;59.70
76139;DHT22;65138;50.946;7.074;2023-03-13T10:54:22;18.90;60.30
76139;DHT22;65138;50.946;7.074;2023-03-13T10:56:50;19.00;59.90
76139;DHT22;65138;50.946;7.074;2023-03-13T10:59:25;18.90;59.50
76139;DHT22;65138;50.946;7.074;2023-03-13T11:01:59;18.70;59.20
76139;DHT22;65138;50.946;7.074;2023-03-13T11:04:33;18.70;59.30
76139;DHT22;65138;50.946;7.074;2023-03-13T11:07:05;18.60;59.00
76139;DHT22;65138;50.946;7.074;2023-03-13T11:09:31;18.60;59.10
76139;DHT22;65138;50.946;7.074;2023-03-13T11:12:17;18.60;59.00
76139;DHT22;65138;50.946;7.074;2023-03-13T11:14:44;18.60;58.70
76139;DHT22;65138;50.946;7.074;2023-03-13T11:17:23;18.60;58.60
76139;DHT22;65138;50.946;7.074;2023-03-13T11:25:45;18.50;58.60
76139;DHT22;65138;50.946;7.074;2023-03-13T11:31:12;18.60;58.20
76139;DHT22;65138;50.946;7.074;2023-03-13T11:33:46;18.50;58.10
76139;DHT22;65138;50.946;7.074;2023-03-13T11:38:58;18.50;58.20
76139;DHT22;65138;50.946;7.074;2023-03-13T11:49:20;18.50;58.00
76139;DHT22;65138;50.946;7.074;2023-03-13T11:57:27;18.40;58.00
76139;DHT22;65138;50.946;7.074;2023-03-13T12:03:00;18.50;57.90
76139;DHT22;65138;50.946;7.074;2023-03-13T12:05:49;18.50;57.80
76139;DHT22;65138;50.946;7.074;2023-03-13T12:08:24;18.50;57.90
76139;DHT22;65138;50.946;7.074;2023-03-13T12:11:21;18.50;57.90
76139;DHT22;65138;50.946;7.074;2023-03-13T12:14:07;18.40;57.90
76139;DHT22;65138;50.946;7.074;2023-03-13T12:16:42;18.40;58.00
76139;DHT22;65138;50.946;7.074;2023-03-13T12:19:11;18.40;58.00
76139;DHT22;65138;50.946;7.074;2023-03-13T12:21:47;18.50;57.80
76139;DHT22;65138;50.946;7.074;2023-03-13T12:24:26;18.50;57.80
76139;DHT22;65138;50.946;7.074;2023-03-13T12:29:47;18.40;57.80
76139;DHT22;65138;50.946;7.074;2023-03-13T12:35:23;18.50;57.70
76139;DHT22;65138;50.946;7.074;2023-03-13T12:43:22;18.40;57.70
76139;DHT22;65138;50.946;7.074;2023-03-13T12:54:24;18.40;57.50
76139;DHT22;65138;50.946;7.074;2023-03-13T12:59:38;18.40;57.60
76139;DHT22;65138;50.946;7.074;2023-03-13T13:02:20;18.40;57.60
76139;DHT22;65138;50.946;7.074;2023-03-13T13:04:48;18.40;57.50
76139;DHT22;65138;50.946;7.074;2023-03-13T13:07:34;18.40;57.40
76139;DHT22;65138;50.946;7.074;2023-03-13T13:12:40;18.40;57.50
76139;DHT22;65138;50.946;7.074;2023-03-13T13:17:54;18.40;57.70
76139;DHT22;65138;50.946;7.074;2023-03-13T13:22:55;18.40;57.80
76139;DHT22;65138;50.946;7.074;2023-03-13T13:25:33;18.40;57.50
76139;DHT22;65138;50.946;7.074;2023-03-13T13:28:24;18.40;57.40
76139;DHT22;65138;50.946;7.074;2023-03-13T13:30:53;18.10;58.20
76139;DHT22;65138;50.946;7.074;2023-03-13T13:41:51;17.50;60.30
76139;DHT22;65138;50.946;7.074;2023-03-13T13:44:22;17.80;60.00
76139;DHT22;65138;50.946;7.074;2023-03-13T13:46:49;18.10;59.30
76139;DHT22;65138;50.946;7.074;2023-03-13T13:49:19;18.30;59.10
76139;DHT22;65138;50.946;7.074;2023-03-13T13:52:16;18.30;59.40
76139;DHT22;65138;50.946;7.074;2023-03-13T13:57:20;18.30;59.20
76139;DHT22;65138;50.946;7.074;2023-03-13T13:59:50;18.20;59.30
76139;DHT22;65138;50.946;7.074;2023-03-13T14:02:50;18.20;59.20
76139;DHT22;65138;50.946;7.074;2023-03-13T14:08:03;18.20;59.10
76139;DHT22;65138;50.946;7.074;2023-03-13T14:10:36;17.80;62.80
76139;DHT22;65138;50.946;7.074;2023-03-13T14:13:16;17.30;66.20
76139;DHT22;65138;50.946;7.074;2023-03-13T14:15:47;17.00;67.80
76139;DHT22;65138;50.946;7.074;2023-03-13T14:18:24;17.20;68.20
76139;DHT22;65138;50.946;7.074;2023-03-13T14:20:55;17.40;69.00
76139;DHT22;65138;50.946;7.074;2023-03-13T14:23:47;17.50;68.60
76139;DHT22;65138;50.946;7.074;2023-03-13T14:26:20;17.70;66.00
76139;DHT22;65138;50.946;7.074;2023-03-13T14:28:48;17.80;64.40
76139;DHT22;65138;50.946;7.074;2023-03-13T14:33:50;17.90;62.90
76139;DHT22;65138;50.946;7.074;2023-03-13T14:36:16;17.90;62.40
76139;DHT22;65138;50.946;7.074;2023-03-13T14:38:51;17.90;62.30
76139;DHT22;65138;50.946;7.074;2023-03-13T14:41:41;17.80;62.10
76139;DHT22;65138;50.946;7.074;2023-03-13T14:46:43;17.40;66.60
76139;DHT22;65138;50.946;7.074;2023-03-13T14:49:20;17.50;65.20
76139;DHT22;65138;50.946;7.074;2023-03-13T14:54:33;17.70;63.10
76139;DHT22;65138;50.946;7.074;2023-03-13T14:57:13;17.70;63.30
76139;DHT22;65138;50.946;7.074;2023-03-13T14:59:40;17.70;62.10
76139;DHT22;65138;50.946;7.074;2023-03-13T15:07:16;17.70;61.50
76139;DHT22;65138;50.946;7.074;2023-03-13T15:09:44;17.70;61.20
76139;DHT22;65138;50.946;7.074;2023-03-13T15:12:16;17.70;61.20
76139;DHT22;65138;50.946;7.074;2023-03-13T15:14:44;17.70;61.10
76139;DHT22;65138;50.946;7.074;2023-03-13T15:17:22;17.70;61.00
76139;DHT22;65138;50.946;7.074;2023-03-13T15:19:50;17.60;60.90
76139;DHT22;65138;50.946;7.074;2023-03-13T15:22:19;17.60;60.80
76139;DHT22;65138;50.946;7.074;2023-03-13T15:24:46;17.60;60.80
76139;DHT22;65138;50.946;7.074;2023-03-13T15:27:20;17.60;60.70
76139;DHT22;65138;50.946;7.074;2023-03-13T15:29:46;17.60;60.70
76139;DHT22;65138;50.946;7.074;2023-03-13T15:32:18;17.60;60.70
76139;DHT22;65138;50.946;7.074;2023-03-13T15:34:46;17.60;60.50
76139;DHT22;65138;50.946;7.074;2023-03-13T15:37:12;17.60;60.50
76139;DHT22;65138;50.946;7.074;2023-03-13T15:39:38;17.60;60.40
76139;DHT22;65138;50.946;7.074;2023-03-13T15:42:04;17.60;60.50
76139;DHT22;65138;50.946;7.074;2023-03-13T15:44:29;17.60;60.50
76139;DHT22;65138;50.946;7.074;2023-03-13T15:46:55;17.60;60.40
76139;DHT22;65138;50.946;7.074;2023-03-13T15:49:21;17.60;60.30
76139;DHT22;65138;50.946;7.074;2023-03-13T15:51:46;17.60;60.30
76139;DHT22;65138;50.946;7.074;2023-03-13T15:54:12;17.60;60.30
76139;DHT22;65138;50.946;7.074;2023-03-13T15:56:37;17.60;60.20
76139;DHT22;65138;50.946;7.074;2023-03-13T15:59:14;17.60;60.20
76139;DHT22;65138;50.946;7.074;2023-03-13T16:01:41;17.60;60.20
76139;DHT22;65138;50.946;7.074;2023-03-13T16:04:09;17.50;60.20
76139;DHT22;65138;50.946;7.074;2023-03-13T16:06:34;17.60;60.20
76139;DHT22;65138;50.946;7.074;2023-03-13T16:09:02;17.60;60.10
76139;DHT22;65138;50.946;7.074;2023-03-13T16:11:28;17.60;60.00
76139;DHT22;65138;50.946;7.074;2023-03-13T16:13:54;17.60;60.00
76139;DHT22;65138;50.946;7.074;2023-03-13T16:16:28;17.60;60.10
76139;DHT22;65138;50.946;7.074;2023-03-13T16:18:56;17.50;60.10
76139;DHT22;65138;50.946;7.074;2023-03-13T16:21:27;17.50;60.00
76139;DHT22;65138;50.946;7.074;2023-03-13T16:23:53;17.50;60.10
76139;DHT22;65138;50.946;7.074;2023-03-13T16:26:23;17.50;60.00
76139;DHT22;65138;50.946;7.074;2023-03-13T16:28:49;17.40;60.20
76139;DHT22;65138;50.946;7.074;2023-03-13T16:31:26;17.50;60.20
76139;DHT22;65138;50.946;7.074;2023-03-13T16:33:53;17.50;60.20
76139;DHT22;65138;50.946;7.074;2023-03-13T16:36:25;17.50;60.20
76139;DHT22;65138;50.946;7.074;2023-03-13T16:38:52;17.40;60.40
76139;DHT22;65138;50.946;7.074;2023-03-13T16:41:21;17.40;60.20
76139;DHT22;65138;50.946;7.074;2023-03-13T16:43:47;17.50;60.20
76139;DHT22;65138;50.946;7.074;2023-03-13T16:46:21;17.40;60.20
76139;DHT22;65138;50.946;7.074;2023-03-13T16:48:48;17.50;60.90
76139;DHT22;65138;50.946;7.074;2023-03-13T16:51:22;17.50;60.00
76139;DHT22;65138;50.946;7.074;2023-03-13T16:53:49;17.50;59.80
76139;DHT22;65138;50.946;7.074;2023-03-13T16:56:37;17.60;59.70
76139;DHT22;65138;50.946;7.074;2023-03-13T16:59:13;17.60;59.60
76139;DHT22;65138;50.946;7.074;2023-03-13T17:01:40;17.60;59.40
76139;DHT22;65138;50.946;7.074;2023-03-13T17:04:05;17.70;59.40
76139;DHT22;65138;50.946;7.074;2023-03-13T17:06:36;17.70;59.30
76139;DHT22;65138;50.946;7.074;2023-03-13T17:09:03;17.70;59.30
76139;DHT22;65138;50.946;7.074;2023-03-13T17:11:32;17.80;59.20
76139;DHT22;65138;50.946;7.074;2023-03-13T17:13:57;17.80;59.20
76139;DHT22;65138;50.946;7.074;2023-03-13T17:16:29;17.80;59.10
76139;DHT22;65138;50.946;7.074;2023-03-13T17:18:56;17.80;59.10
76139;DHT22;65138;50.946;7.074;2023-03-13T17:21:25;17.80;59.10
76139;DHT22;65138;50.946;7.074;2023-03-13T17:23:51;17.80;59.00
76139;DHT22;65138;50.946;7.074;2023-03-13T17:26:19;17.90;59.00